Northport NY Webcam more information Northport NY Webcam


Visit our other weather sites:

Template documentation
and downloads

And another site



Nearby METAR Reports


Warning: A non-numeric value encountered in /home/portan24/public_html/weather28/metar/wsMetarTxt.php on line 608

Warning: A non-numeric value encountered in /home/portan24/public_html/weather28/metar/wsMetarTxt.php on line 608
   
EBBR - Brussels International Airport, Belgium
Distance from station: W 9 mi
Updated: Nov 15 2018 10:20 am
Clear  
Clear  
   Wind: ESE 5.8 mph
Wind: ESE 5.8 mph
Temperature: 55.4°F
Dew Point: 44.6°F
Humidity: 67%
Barometer: 30.21 inHg
Visibility: More than 6 mi
Cloud details: Clear m
EBBR 151520Z 11005KT CAVOK 13/07 Q1023 NOSIG
EBBE - Beauvechain (Bevekom), Belgium
Distance from station: SSE 10 mi
Updated: Nov 15 2018 10:25 am
Clear  
Clear  
   Wind: East 4.6 mph
Wind: East 4.6 mph
Temperature: 53.6°F
Dew Point: 42.8°F
Humidity: 67%
Barometer: 30.21 inHg
Clouds: Clear
Visibility: More than 6 mi
Cloud details: Clear m
EBBE 151525Z AUTO 10004KT 9999 NCD 12/06 Q1023 BLU
EBDT - Schaffen, Belgium
Distance from station: ENE 18 mi
Updated: Nov 15 2018 10:25 am
Clear  
Clear  
   Wind: ESE 5.8 mph
Wind: ESE 5.8 mph
Temperature: 55.4°F
Dew Point: 44.6°F
Humidity: 67%
Barometer: 30.24 inHg
Clouds: Clear
Visibility: More than 6 mi
Cloud details: Clear m
EBDT 151525Z 11005KT 9999 SKC 13/07 Q1024 BLU BLU
EBAW - Antwerp/Deurne, Belgium
Distance from station: NNW 23 mi
Updated: Nov 15 2018 10:20 am
Clear  
Clear  
   Wind: ESE 4.6 mph
Wind: ESE 4.6 mph
Temperature: 51.8°F
Dew Point: 41°F
Humidity: 67%
Barometer: 30.21 inHg
Visibility: More than 6 mi
Cloud details: Clear m
EBAW 151520Z 12004KT CAVOK 11/05 Q1023 NOSIG
EBCI - Charleroi/Gosselies, Belgium
Distance from station: SSW 32 mi
Updated: Nov 15 2018 10:20 am
Clear  
Clear  
   Wind: SE 4.6 mph
Wind: SE 4.6 mph
Temperature: 55.4°F
Dew Point: 44.6°F
Humidity: 67%
Barometer: 30.21 inHg
Visibility: More than 6 mi
Cloud details: Clear m
EBCI 151520Z 13004KT 110V200 CAVOK 13/07 Q1023 NOSIG
EBLG - Bierset/Liege, Belgium
Distance from station: ESE 38 mi
Updated: Nov 15 2018 10:20 am
Clear  
Clear  
   Wind: SE 6.9 mph
Wind: SE 6.9 mph
Temperature: 53.6°F
Dew Point: 35.6°F
Humidity: 51%
Barometer: 30.24 inHg
Visibility: More than 6 mi
Cloud details: Clear m
EBLG 151520Z 14006KT CAVOK 12/02 Q1024 NOSIG

Script developed by  Saratoga-weather.org Adapted for the template by  Weerstation Leuven

You find our weather info also at:

Weather Underground

AWEKAS

Citizen Weather Observer Program (CWOP)

Equipment we use:

Weather-station
Davis VP2

Davis VP2